Fuding, China
Current Conditions -  °F | °C
As of 9:00 PM on Monday 20 Oct 2014 (Local Time) from ZSFZ Reporting Station
Broken Clouds Broken Clouds  
Wind Chill: 73°   Ceiling: 1700
Heat Index: 73°   Visibility: 6mi
Dew Point: 70°   Wind: 2mph
Humidity: 88%   Direction: NA
Pressure: 29.97"   Gusts: NA
Location:  27.33°N, 120.2°E
Report Text: ZSFZ 201300Z VRB01MPS 9999 FEW007 BKN017 23/21 Q1015 NOSIG
Loading
Personal Weather Stations






























Interactive Weather Map New forecast layout! Learn more

10-Day Weather Forecast

Advertisements
Track Severe Weather on mobile